createdAt,value
2018-07-27T00:00:43.191Z,19.98
2018-07-27T00:01:43.116Z,19.98
2018-07-27T00:02:43.052Z,19.98
2018-07-27T00:03:42.972Z,20.03
2018-07-27T00:04:42.910Z,20.05
2018-07-27T00:05:42.833Z,20.05
2018-07-27T00:06:42.768Z,19.95
2018-07-27T00:07:42.686Z,20.03
2018-07-27T00:08:42.625Z,19.88
2018-07-27T00:09:42.548Z,19.79
2018-07-27T00:10:42.483Z,19.76
2018-07-27T00:11:42.404Z,19.68
2018-07-27T00:12:42.335Z,19.71
2018-07-27T00:13:42.261Z,19.71
2018-07-27T00:14:42.198Z,19.72
2018-07-27T00:15:42.116Z,19.78
2018-07-27T00:16:42.053Z,19.75
2018-07-27T00:17:41.980Z,19.65
2018-07-27T00:18:41.915Z,19.75
2018-07-27T00:19:41.833Z,19.72
2018-07-27T00:20:41.769Z,19.65
2018-07-27T00:21:41.689Z,19.69
2018-07-27T00:22:41.626Z,19.71
2018-07-27T00:23:41.547Z,19.72
2018-07-27T00:24:41.488Z,19.73
2018-07-27T00:25:41.409Z,19.73
2018-07-27T00:26:41.341Z,19.79
2018-07-27T00:27:41.266Z,19.71
2018-07-27T00:28:41.199Z,19.61
2018-07-27T00:29:41.121Z,19.57
2018-07-27T00:30:41.057Z,19.61
2018-07-27T00:31:40.978Z,19.60
2018-07-27T00:32:40.918Z,19.63
2018-07-27T00:33:40.832Z,19.48
2018-07-27T00:34:40.766Z,19.57
2018-07-27T00:35:40.690Z,19.53
2018-07-27T00:36:40.626Z,19.57
2018-07-27T00:37:40.547Z,19.60
2018-07-27T00:38:40.484Z,19.64
2018-07-27T00:39:40.403Z,19.60
2018-07-27T00:40:40.342Z,19.53
2018-07-27T00:41:40.260Z,19.53
2018-07-27T00:42:40.199Z,19.55
2018-07-27T00:43:40.118Z,19.46
2018-07-27T00:44:40.056Z,19.45
2018-07-27T00:45:39.981Z,19.39
2018-07-27T00:46:39.911Z,19.43
2018-07-27T00:47:39.836Z,19.36
2018-07-27T00:48:39.769Z,19.38
2018-07-27T00:49:39.688Z,19.33
2018-07-27T00:50:39.622Z,19.36
2018-07-27T00:51:39.541Z,19.27
2018-07-27T00:52:39.485Z,19.25
2018-07-27T00:53:39.403Z,19.01
2018-07-27T00:54:39.340Z,19.05
2018-07-27T00:55:39.267Z,19.11
2018-07-27T00:56:39.195Z,19.13
2018-07-27T00:57:39.120Z,19.21
2018-07-27T00:58:39.055Z,19.14
2018-07-27T00:59:38.970Z,19.27
2018-07-27T01:00:38.909Z,19.35
2018-07-27T01:01:38.830Z,19.32
2018-07-27T01:02:38.762Z,19.42
2018-07-27T01:03:38.684Z,19.46
2018-07-27T01:04:38.622Z,19.43
2018-07-27T01:05:38.541Z,19.48
2018-07-27T01:06:38.481Z,19.46
2018-07-27T01:07:38.397Z,19.46
2018-07-27T01:08:38.334Z,19.50
2018-07-27T01:09:38.255Z,19.45
2018-07-27T01:10:38.189Z,19.43
2018-07-27T01:11:38.109Z,19.40
2018-07-27T01:12:38.045Z,19.38
2018-07-27T01:13:37.973Z,19.25
2018-07-27T01:14:37.906Z,19.32
2018-07-27T01:15:37.826Z,19.17
2018-07-27T01:16:37.762Z,19.17
2018-07-27T01:17:37.679Z,19.08
2018-07-27T01:18:37.613Z,19.08
2018-07-27T01:19:37.534Z,19.08
2018-07-27T01:20:37.468Z,19.01
2018-07-27T01:21:37.390Z,18.99
2018-07-27T01:22:37.327Z,19.02
2018-07-27T01:23:37.247Z,19.02
2018-07-27T01:24:37.180Z,18.97
2018-07-27T01:25:37.103Z,19.09
2018-07-27T01:26:37.042Z,19.06
2018-07-27T01:27:36.957Z,18.97
2018-07-27T01:28:36.893Z,19.01
2018-07-27T01:29:36.814Z,19.02
2018-07-27T01:30:36.749Z,18.92
2018-07-27T01:31:36.670Z,18.95
2018-07-27T01:32:36.608Z,18.95
2018-07-27T01:33:36.527Z,18.86
2018-07-27T01:34:36.462Z,18.86
2018-07-27T01:35:36.381Z,18.77
2018-07-27T01:36:36.322Z,18.80
2018-07-27T01:37:36.240Z,18.82
2018-07-27T01:38:36.172Z,18.80
2018-07-27T01:39:36.095Z,18.82
2018-07-27T01:40:36.027Z,18.67
2018-07-27T01:41:35.948Z,18.65
2018-07-27T01:42:35.883Z,18.59
2018-07-27T01:43:35.804Z,18.57
2018-07-27T01:44:35.740Z,18.49
2018-07-27T01:45:35.694Z,18.37
2018-07-27T01:46:35.592Z,18.25
2018-07-27T01:47:35.518Z,18.16
2018-07-27T01:48:35.455Z,18.24
2018-07-27T01:49:35.371Z,18.18
2018-07-27T01:50:35.305Z,18.21
2018-07-27T01:51:35.225Z,18.04
2018-07-27T01:52:35.164Z,18.03
2018-07-27T01:53:35.077Z,18.13
2018-07-27T01:54:35.014Z,18.14
2018-07-27T01:55:34.936Z,18.09
2018-07-27T01:56:34.870Z,18.10
2018-07-27T01:57:34.791Z,18.07
2018-07-27T01:58:34.726Z,18.09
2018-07-27T01:59:34.644Z,18.10
2018-07-27T02:00:34.586Z,18.07
2018-07-27T02:01:34.502Z,18.18
2018-07-27T02:02:34.437Z,18.16
2018-07-27T02:03:34.362Z,18.10
2018-07-27T02:04:34.293Z,18.24
2018-07-27T02:05:34.216Z,18.06
2018-07-27T02:06:34.150Z,18.10
2018-07-27T02:07:34.066Z,18.09
2018-07-27T02:08:34.009Z,18.06
2018-07-27T02:09:33.922Z,18.02
2018-07-27T02:10:33.860Z,18.06
2018-07-27T02:11:33.775Z,18.03
2018-07-27T02:12:33.709Z,18.19
2018-07-27T02:13:33.632Z,18.19
2018-07-27T02:14:33.567Z,18.21
2018-07-27T02:15:33.483Z,18.29
2018-07-27T02:16:33.422Z,18.40
2018-07-27T02:17:33.339Z,18.39
2018-07-27T02:18:33.276Z,18.35
2018-07-27T02:19:33.198Z,18.37
2018-07-27T02:20:33.132Z,18.25
2018-07-27T02:21:33.047Z,18.25
2018-07-27T02:22:32.985Z,18.25
2018-07-27T02:23:32.955Z,18.18
2018-07-27T02:24:32.840Z,18.09
2018-07-27T02:25:32.761Z,18.06
2018-07-27T02:26:32.694Z,18.09
2018-07-27T02:27:32.619Z,18.07
2018-07-27T02:28:32.549Z,17.95
2018-07-27T02:29:32.466Z,17.96
2018-07-27T02:30:32.403Z,17.94
2018-07-27T02:31:32.320Z,18.09
2018-07-27T02:32:32.258Z,18.06
2018-07-27T02:33:32.177Z,18.06
2018-07-27T02:34:32.112Z,18.11
2018-07-27T02:35:32.028Z,18.13
2018-07-27T02:36:31.971Z,18.13
2018-07-27T02:37:31.887Z,18.22
2018-07-27T02:38:31.826Z,18.28
2018-07-27T02:39:31.740Z,18.19
2018-07-27T02:40:31.682Z,18.11
2018-07-27T02:41:31.595Z,18.11
2018-07-27T02:42:31.540Z,18.03
2018-07-27T02:43:31.449Z,17.88
2018-07-27T02:44:31.387Z,17.88
2018-07-27T02:45:31.306Z,17.85
2018-07-27T02:46:31.238Z,17.95
2018-07-27T02:47:31.158Z,17.89
2018-07-27T02:48:31.099Z,17.92
2018-07-27T02:49:31.020Z,17.96
2018-07-27T02:50:30.946Z,17.98
2018-07-27T02:51:30.956Z,18.06
2018-07-27T02:52:30.800Z,18.11
2018-07-27T02:53:30.720Z,17.92
2018-07-27T02:54:30.661Z,17.95
2018-07-27T02:55:30.574Z,17.79
2018-07-27T02:56:30.512Z,17.67
2018-07-27T02:57:30.434Z,17.73
2018-07-27T02:58:30.364Z,17.69
2018-07-27T02:59:30.282Z,17.66
2018-07-27T03:00:30.222Z,17.66
2018-07-27T03:01:30.138Z,17.77
2018-07-27T03:02:30.082Z,17.84
2018-07-27T03:03:29.997Z,17.88
2018-07-27T03:04:29.922Z,17.94
2018-07-27T03:05:29.856Z,17.98
2018-07-27T03:06:29.781Z,17.98
2018-07-27T03:07:29.703Z,17.95
2018-07-27T03:08:29.634Z,17.94
2018-07-27T03:09:29.558Z,17.84
2018-07-27T03:10:29.489Z,17.77
2018-07-27T03:11:29.409Z,17.82
2018-07-27T03:12:29.343Z,17.84
2018-07-27T03:13:29.265Z,17.87
2018-07-27T03:14:29.197Z,17.82
2018-07-27T03:15:29.114Z,17.79
2018-07-27T03:16:29.052Z,17.87
2018-07-27T03:17:28.973Z,17.95
2018-07-27T03:18:28.906Z,17.91
2018-07-27T03:19:28.829Z,17.88
2018-07-27T03:20:28.758Z,17.88
2018-07-27T03:21:28.680Z,17.87
2018-07-27T03:22:28.614Z,17.71
2018-07-27T03:23:28.535Z,17.70
2018-07-27T03:24:28.477Z,17.58
2018-07-27T03:25:28.399Z,17.47
2018-07-27T03:26:28.323Z,17.38
2018-07-27T03:27:28.240Z,17.33
2018-07-27T03:28:28.181Z,17.38
2018-07-27T03:29:28.090Z,17.55
2018-07-27T03:30:28.041Z,17.50
2018-07-27T03:31:27.949Z,17.55
2018-07-27T03:32:27.884Z,17.60
2018-07-27T03:33:27.802Z,17.71
2018-07-27T03:34:27.739Z,17.70
2018-07-27T03:35:27.657Z,17.71
2018-07-27T03:36:27.591Z,17.69
2018-07-27T03:37:27.509Z,17.57
2018-07-27T03:38:27.447Z,17.47
2018-07-27T03:39:27.361Z,17.38
2018-07-27T03:40:27.300Z,17.46
2018-07-27T03:41:27.220Z,17.43
2018-07-27T03:42:27.150Z,17.43
2018-07-27T03:43:27.071Z,17.43
2018-07-27T03:44:27.006Z,17.30
2018-07-27T03:45:26.929Z,17.23
2018-07-27T03:46:26.859Z,17.21
2018-07-27T03:47:26.780Z,17.21
2018-07-27T03:48:26.717Z,17.21
2018-07-27T03:49:26.635Z,17.21
2018-07-27T03:50:26.571Z,17.23
2018-07-27T03:51:26.486Z,17.23
2018-07-27T03:52:26.423Z,17.29
2018-07-27T03:53:26.340Z,17.20
2018-07-27T03:54:26.274Z,17.23
2018-07-27T03:55:26.194Z,17.15
2018-07-27T03:56:26.128Z,17.23
2018-07-27T03:57:26.046Z,17.13
2018-07-27T03:58:25.979Z,17.03
2018-07-27T03:59:25.900Z,17.17
2018-07-27T04:00:25.833Z,17.03
2018-07-27T04:01:25.752Z,17.00
2018-07-27T04:02:25.692Z,17.03
2018-07-27T04:03:25.606Z,17.10
2018-07-27T04:04:25.544Z,17.08
2018-07-27T04:05:25.461Z,17.08
2018-07-27T04:06:25.395Z,17.13
2018-07-27T04:07:25.355Z,17.15
2018-07-27T04:08:25.244Z,17.21
2018-07-27T04:09:25.168Z,17.17
2018-07-27T04:10:25.103Z,17.28
2018-07-27T04:11:25.019Z,17.28
2018-07-27T04:12:25.024Z,17.26
2018-07-27T04:13:24.872Z,17.47
2018-07-27T04:14:24.832Z,17.39
2018-07-27T04:15:24.725Z,17.51
2018-07-27T04:16:24.659Z,17.33
2018-07-27T04:17:24.582Z,17.33
2018-07-27T04:18:24.548Z,17.35
2018-07-27T04:19:24.450Z,17.28
2018-07-27T04:20:24.364Z,17.25
2018-07-27T04:21:24.287Z,17.29
2018-07-27T04:22:24.319Z,17.28
2018-07-27T04:23:24.137Z,17.32
2018-07-27T04:24:24.182Z,17.36
2018-07-27T04:25:23.994Z,17.40
2018-07-27T04:26:24.091Z,17.36
2018-07-27T04:27:23.842Z,17.50
2018-07-27T04:28:23.798Z,17.51
2018-07-27T04:29:23.696Z,17.51
2018-07-27T04:30:23.703Z,17.51
2018-07-27T04:31:23.554Z,17.64
2018-07-27T04:32:23.485Z,17.64
2018-07-27T04:33:23.402Z,17.70
2018-07-27T04:34:23.337Z,17.66
2018-07-27T04:35:23.257Z,17.64
2018-07-27T04:36:23.205Z,17.66
2018-07-27T04:37:23.108Z,17.63
2018-07-27T04:38:23.046Z,17.74
2018-07-27T04:39:22.963Z,17.73
2018-07-27T04:40:22.897Z,17.66
2018-07-27T04:41:22.814Z,17.73
2018-07-27T04:42:22.750Z,17.73
2018-07-27T04:43:22.670Z,17.81
2018-07-27T04:44:22.675Z,17.79
2018-07-27T04:45:22.521Z,17.79
2018-07-27T04:46:22.455Z,17.88
2018-07-27T04:47:22.375Z,17.85
2018-07-27T04:48:22.309Z,17.88
2018-07-27T04:49:22.260Z,17.95
2018-07-27T04:50:22.161Z,17.96
2018-07-27T04:51:22.081Z,17.98
2018-07-27T04:52:22.020Z,18.10
2018-07-27T04:53:21.932Z,18.06
2018-07-27T04:54:21.865Z,18.11
2018-07-27T04:55:21.786Z,18.07
2018-07-27T04:56:21.720Z,18.18
2018-07-27T04:57:21.639Z,18.11
2018-07-27T04:58:21.642Z,18.18
2018-07-27T04:59:21.495Z,18.19
2018-07-27T05:00:21.448Z,18.25
2018-07-27T05:01:21.350Z,18.25
2018-07-27T05:02:21.282Z,18.22
2018-07-27T05:03:21.200Z,18.21
2018-07-27T05:04:21.169Z,18.31
2018-07-27T05:05:21.054Z,18.39
2018-07-27T05:06:21.080Z,18.29
2018-07-27T05:07:20.907Z,18.31
2018-07-27T05:08:20.861Z,18.35
2018-07-27T05:09:20.758Z,18.31
2018-07-27T05:10:20.812Z,18.39
2018-07-27T05:11:20.619Z,18.34
2018-07-27T05:12:20.561Z,18.42
2018-07-27T05:13:20.474Z,18.42
2018-07-27T05:14:20.420Z,18.52
2018-07-27T05:15:20.328Z,18.57
2018-07-27T05:16:20.329Z,18.53
2018-07-27T05:17:20.185Z,18.62
2018-07-27T05:18:20.200Z,18.68
2018-07-27T05:19:20.030Z,18.68
2018-07-27T05:20:20.050Z,18.69
2018-07-27T05:21:19.884Z,18.71
2018-07-27T05:22:19.821Z,18.83
2018-07-27T05:23:19.735Z,18.79
2018-07-27T05:24:19.767Z,18.84
2018-07-27T05:25:19.591Z,18.89
2018-07-27T05:26:19.575Z,18.97
2018-07-27T05:27:19.445Z,18.98
2018-07-27T05:28:19.487Z,18.99
2018-07-27T05:29:19.299Z,19.06
2018-07-27T05:30:19.294Z,19.09
2018-07-27T05:31:19.156Z,19.13
2018-07-27T05:32:19.103Z,19.20
2018-07-27T05:33:19.007Z,19.25
2018-07-27T05:34:19.016Z,19.32
2018-07-27T05:35:18.864Z,19.27
2018-07-27T05:36:18.824Z,19.39
2018-07-27T05:37:18.718Z,19.40
2018-07-27T05:38:18.645Z,19.38
2018-07-27T05:39:18.640Z,19.36
2018-07-27T05:40:18.497Z,19.46
2018-07-27T05:41:18.446Z,19.51
2018-07-27T05:42:18.354Z,19.51
2018-07-27T05:43:18.357Z,19.53
2018-07-27T05:44:18.206Z,19.60
2018-07-27T05:45:18.167Z,19.61
2018-07-27T05:46:18.061Z,19.69
2018-07-27T05:47:18.077Z,19.65
2018-07-27T05:48:17.916Z,19.75
2018-07-27T05:49:17.885Z,19.78
2018-07-27T05:50:17.774Z,19.83
2018-07-27T05:51:17.795Z,19.83
2018-07-27T05:52:17.628Z,19.87
2018-07-27T05:53:17.603Z,20.00
2018-07-27T05:54:17.480Z,19.98
2018-07-27T05:55:17.516Z,19.94
2018-07-27T05:56:17.338Z,20.08
2018-07-27T05:57:17.324Z,20.10
2018-07-27T05:58:17.192Z,20.13
2018-07-27T05:59:17.239Z,20.16
2018-07-27T06:00:17.050Z,20.20
2018-07-27T06:01:17.058Z,20.28
2018-07-27T06:02:16.904Z,20.35
2018-07-27T06:03:16.852Z,20.54
2018-07-27T06:04:16.758Z,20.47
2018-07-27T06:05:16.768Z,20.62
2018-07-27T06:06:16.620Z,20.53
2018-07-27T06:07:16.550Z,20.62
2018-07-27T06:08:16.470Z,20.69
2018-07-27T06:09:16.491Z,20.62
2018-07-27T06:10:16.326Z,20.68
2018-07-27T06:11:16.372Z,20.76
2018-07-27T06:12:16.181Z,20.93
2018-07-27T06:13:16.204Z,20.91
2018-07-27T06:14:16.038Z,21.01
2018-07-27T06:15:16.012Z,21.11
2018-07-27T06:16:15.897Z,21.09
2018-07-27T06:17:15.821Z,21.09
2018-07-27T06:18:15.817Z,21.08
2018-07-27T06:19:15.734Z,21.24
2018-07-27T06:20:15.611Z,21.21
2018-07-27T06:21:15.643Z,21.27
2018-07-27T06:22:15.466Z,21.35
2018-07-27T06:23:15.452Z,21.30
2018-07-27T06:24:15.414Z,21.27
2018-07-27T06:25:15.366Z,21.42
2018-07-27T06:26:15.178Z,21.44
2018-07-27T06:27:15.173Z,21.45
2018-07-27T06:28:15.138Z,21.61
2018-07-27T06:29:15.148Z,21.60
2018-07-27T06:30:14.890Z,21.69
2018-07-27T06:31:14.893Z,21.74
2018-07-27T06:32:14.753Z,21.82
2018-07-27T06:33:14.704Z,21.89
2018-07-27T06:34:14.603Z,21.95
2018-07-27T06:35:14.613Z,21.91
2018-07-27T06:36:14.468Z,22.05
2018-07-27T06:37:14.389Z,22.05
2018-07-27T06:38:14.430Z,21.97
2018-07-27T06:39:14.277Z,22.04
2018-07-27T06:40:14.237Z,22.08
2018-07-27T06:41:14.104Z,22.08
2018-07-27T06:42:14.151Z,22.16
2018-07-27T06:43:13.963Z,22.20
2018-07-27T06:44:13.897Z,22.20
2018-07-27T06:45:13.848Z,22.23
2018-07-27T06:46:13.869Z,22.31
2018-07-27T06:47:13.678Z,22.42
2018-07-27T06:48:13.677Z,22.44
2018-07-27T06:49:13.547Z,22.60
2018-07-27T06:50:13.487Z,22.63
2018-07-27T06:51:13.392Z,22.65
2018-07-27T06:52:13.401Z,22.75
2018-07-27T06:53:13.259Z,22.77
2018-07-27T06:54:13.207Z,22.89
2018-07-27T06:55:13.108Z,22.92
2018-07-27T06:56:13.120Z,22.96
2018-07-27T06:57:12.966Z,22.97
2018-07-27T06:58:12.931Z,23.14
2018-07-27T06:59:12.827Z,23.14
2018-07-27T07:00:12.841Z,23.14
2018-07-27T07:01:12.683Z,23.20
2018-07-27T07:02:12.650Z,23.42
2018-07-27T07:03:12.543Z,23.45
2018-07-27T07:04:12.562Z,23.49
2018-07-27T07:05:12.403Z,23.60
2018-07-27T07:06:12.369Z,23.67
2018-07-27T07:07:12.297Z,23.72
2018-07-27T07:08:12.280Z,23.82
2018-07-27T07:09:12.153Z,23.89
2018-07-27T07:10:12.090Z,23.93
2018-07-27T07:11:11.978Z,23.97
2018-07-27T07:12:12.004Z,24.10
2018-07-27T07:13:11.837Z,24.12
2018-07-27T07:14:11.819Z,24.17
2018-07-27T07:15:11.702Z,24.27
2018-07-27T07:16:11.723Z,24.34
2018-07-27T07:17:11.557Z,24.41
2018-07-27T07:18:11.532Z,24.50
2018-07-27T07:19:11.417Z,24.38
2018-07-27T07:20:11.443Z,24.59
2018-07-27T07:21:11.279Z,24.54
2018-07-27T07:22:11.252Z,24.69
2018-07-27T07:23:11.137Z,24.75
2018-07-27T07:24:11.164Z,24.78
2018-07-27T07:25:11.050Z,24.94
2018-07-27T07:26:11.371Z,24.93
2018-07-27T07:27:10.860Z,25.05
2018-07-27T07:28:10.884Z,25.08
2018-07-27T07:29:10.725Z,25.13
2018-07-27T07:30:10.694Z,25.17
2018-07-27T07:31:10.586Z,25.25
2018-07-27T07:32:10.511Z,25.32
2018-07-27T07:33:10.520Z,25.35
2018-07-27T07:34:10.371Z,25.41
2018-07-27T07:35:10.419Z,25.42
2018-07-27T07:36:10.234Z,25.49
2018-07-27T07:37:10.229Z,25.55
2018-07-27T07:38:10.095Z,25.70
2018-07-27T07:39:10.149Z,25.71
2018-07-27T07:40:09.960Z,25.68
2018-07-27T07:41:09.955Z,25.71
2018-07-27T07:42:09.819Z,25.79
2018-07-27T07:43:09.862Z,25.86
2018-07-27T07:44:09.683Z,25.93
2018-07-27T07:45:09.735Z,26.08
2018-07-27T07:46:09.547Z,26.20
2018-07-27T07:47:09.582Z,26.30
2018-07-27T07:48:09.407Z,26.38
2018-07-27T07:49:09.393Z,26.55
2018-07-27T07:50:09.275Z,26.55
2018-07-27T07:51:09.303Z,26.62
2018-07-27T07:52:09.133Z,26.82
2018-07-27T07:53:09.113Z,26.77
2018-07-27T07:54:08.998Z,26.89
2018-07-27T07:55:09.022Z,26.94
2018-07-27T07:56:08.865Z,26.98
2018-07-27T07:57:08.831Z,26.95
2018-07-27T07:58:08.727Z,26.97
2018-07-27T07:59:08.743Z,27.09
2018-07-27T08:00:08.590Z,27.09
2018-07-27T08:01:08.525Z,27.12
2018-07-27T08:02:08.559Z,27.21
2018-07-27T08:03:08.396Z,27.23
2018-07-27T08:04:08.369Z,27.32
2018-07-27T08:05:08.251Z,27.29
2018-07-27T08:06:08.279Z,27.20
2018-07-27T08:07:08.123Z,27.35
2018-07-27T08:08:08.089Z,27.36
2018-07-27T08:09:07.987Z,27.49
2018-07-27T08:10:07.997Z,27.51
2018-07-27T08:11:07.903Z,27.61
2018-07-27T08:12:07.807Z,27.64
2018-07-27T08:13:07.715Z,27.61
2018-07-27T08:14:07.721Z,27.79
2018-07-27T08:15:07.582Z,27.88
2018-07-27T08:16:07.515Z,27.95
2018-07-27T08:17:07.448Z,28.07
2018-07-27T08:18:07.441Z,28.06
2018-07-27T08:19:07.314Z,28.11
2018-07-27T08:20:07.354Z,28.26
2018-07-27T08:21:07.182Z,28.28
2018-07-27T08:22:07.160Z,28.38
2018-07-27T08:23:07.049Z,28.43
2018-07-27T08:24:07.071Z,28.41
2018-07-27T08:25:06.917Z,28.38
2018-07-27T08:26:06.847Z,28.38
2018-07-27T08:27:06.784Z,28.41
2018-07-27T08:28:06.795Z,28.49
2018-07-27T08:29:06.653Z,28.59
2018-07-27T08:30:06.706Z,28.61
2018-07-27T08:31:06.519Z,28.71
2018-07-27T08:32:06.515Z,28.90
2018-07-27T08:33:06.390Z,28.93
2018-07-27T08:34:06.425Z,29.07
2018-07-27T08:35:06.251Z,29.18
2018-07-27T08:36:06.236Z,29.14
2018-07-27T08:37:06.127Z,29.03
2018-07-27T08:38:06.059Z,29.10
2018-07-27T08:39:05.999Z,29.21
2018-07-27T08:40:05.951Z,29.36
2018-07-27T08:41:05.861Z,29.46
2018-07-27T08:42:05.873Z,29.53
2018-07-27T08:43:05.730Z,29.66
2018-07-27T08:44:05.667Z,29.71
2018-07-27T08:45:05.602Z,29.77
2018-07-27T08:46:05.586Z,29.66
2018-07-27T08:47:05.470Z,29.65
2018-07-27T08:48:05.497Z,29.55
2018-07-27T08:49:05.346Z,29.50
2018-07-27T08:50:05.308Z,29.41
2018-07-27T08:51:05.210Z,29.51
2018-07-27T08:52:05.219Z,29.48
2018-07-27T08:53:05.080Z,29.68
2018-07-27T08:54:05.142Z,29.68
2018-07-27T08:55:04.962Z,29.77
2018-07-27T08:56:04.887Z,29.93
2018-07-27T08:57:04.952Z,29.90
2018-07-27T08:58:07.851Z,30.08
2018-07-27T08:59:05.775Z,30.00
2018-07-27T09:00:04.630Z,30.06
2018-07-27T09:01:04.678Z,30.19
2018-07-27T09:02:04.520Z,30.19
2018-07-27T09:03:04.600Z,30.19
2018-07-27T09:04:04.400Z,30.12
2018-07-27T09:05:04.439Z,29.96
2018-07-27T09:06:04.245Z,29.84
2018-07-27T09:07:04.334Z,29.87
2018-07-27T09:08:04.139Z,29.68
2018-07-27T09:09:05.342Z,29.71
2018-07-27T09:10:03.981Z,29.75
2018-07-27T09:11:04.312Z,29.89
2018-07-27T09:12:03.867Z,30.11
2018-07-27T09:13:04.037Z,30.26
2018-07-27T09:14:03.729Z,30.36
2018-07-27T09:15:03.778Z,30.36
2018-07-27T09:16:03.632Z,30.44
2018-07-27T09:17:03.660Z,30.40
2018-07-27T09:18:03.473Z,30.37
2018-07-27T09:19:03.474Z,30.18
2018-07-27T09:20:03.343Z,30.19
2018-07-27T09:21:03.385Z,30.22
2018-07-27T09:22:03.217Z,30.43
2018-07-27T09:23:03.295Z,30.49
2018-07-27T09:24:03.089Z,30.49
2018-07-27T09:25:03.377Z,30.56
2018-07-27T09:26:03.052Z,30.53
2018-07-27T09:27:02.972Z,30.50
2018-07-27T09:28:02.851Z,30.46
2018-07-27T09:29:02.910Z,30.57
2018-07-27T09:30:02.729Z,30.75
2018-07-27T09:31:02.739Z,30.86
2018-07-27T09:32:02.580Z,30.83
2018-07-27T09:33:02.624Z,30.83
2018-07-27T09:34:02.479Z,30.87
2018-07-27T09:35:02.460Z,30.93
2018-07-27T09:36:02.325Z,31.08
2018-07-27T09:37:02.370Z,31.08
2018-07-27T09:38:02.198Z,31.18
2018-07-27T09:39:02.281Z,31.26
2018-07-27T09:40:02.102Z,31.42
2018-07-27T09:41:02.091Z,31.39
2018-07-27T09:42:01.951Z,31.46
2018-07-27T09:43:02.002Z,31.52
2018-07-27T09:44:01.818Z,31.57
2018-07-27T09:45:01.912Z,31.63
2018-07-27T09:46:01.696Z,31.60
2018-07-27T09:47:01.722Z,31.45
2018-07-27T09:48:01.572Z,31.42
2018-07-27T09:49:01.635Z,31.51
2018-07-27T09:50:01.441Z,31.46
2018-07-27T09:51:01.542Z,31.44
2018-07-27T09:52:01.318Z,31.23
2018-07-27T09:53:01.353Z,31.23
2018-07-27T09:54:01.189Z,31.15
2018-07-27T09:55:01.264Z,30.99
2018-07-27T09:56:01.065Z,30.90
2018-07-27T09:57:01.072Z,30.67
2018-07-27T09:58:00.991Z,30.49
2018-07-27T09:59:00.985Z,30.48
2018-07-27T10:00:00.812Z,30.53
2018-07-27T10:01:00.846Z,30.59
2018-07-27T10:02:00.688Z,30.79
2018-07-27T10:03:00.654Z,30.87
2018-07-27T10:04:00.568Z,30.90
2018-07-27T10:05:00.565Z,31.07
2018-07-27T10:06:00.438Z,31.01
2018-07-27T10:07:00.540Z,30.85
2018-07-27T10:08:00.307Z,30.46
2018-07-27T10:09:00.333Z,30.37
2018-07-27T10:10:00.183Z,30.22
2018-07-27T10:11:00.247Z,30.12
2018-07-27T10:12:00.058Z,29.97
2018-07-27T10:13:00.163Z,30.05
2018-07-27T10:13:59.932Z,29.97
2018-07-27T10:14:59.978Z,30.22
2018-07-27T10:15:59.805Z,30.21
2018-07-27T10:16:59.882Z,29.99
2018-07-27T10:17:59.685Z,29.93
2018-07-27T10:18:59.689Z,29.83
2018-07-27T10:19:59.553Z,29.75
2018-07-27T10:20:59.599Z,29.77
2018-07-27T10:21:59.429Z,29.66
2018-07-27T10:22:59.514Z,29.65
2018-07-27T10:23:59.302Z,29.75
2018-07-27T10:24:59.267Z,29.69
2018-07-27T10:25:59.173Z,29.78
2018-07-27T10:26:59.177Z,29.77
2018-07-27T10:27:59.052Z,29.84
2018-07-27T10:28:59.089Z,29.84
2018-07-27T10:29:58.928Z,29.80
2018-07-27T10:30:58.911Z,29.77
2018-07-27T10:31:58.793Z,29.80
2018-07-27T10:32:58.807Z,29.71
2018-07-27T10:33:58.670Z,29.62
2018-07-27T10:34:58.619Z,29.60
2018-07-27T10:35:58.538Z,29.60
2018-07-27T10:36:58.529Z,29.50
2018-07-27T10:37:58.410Z,29.48
2018-07-27T10:38:58.440Z,29.51
2018-07-27T10:39:58.281Z,29.48
2018-07-27T10:40:58.248Z,29.48
2018-07-27T10:41:58.155Z,29.44
2018-07-27T10:42:58.160Z,29.48
2018-07-27T10:43:58.025Z,29.44
2018-07-27T10:44:58.116Z,29.36
2018-07-27T10:45:57.902Z,29.28
2018-07-27T10:46:57.879Z,29.25
2018-07-27T10:47:57.766Z,29.29
2018-07-27T10:48:57.788Z,29.18
2018-07-27T10:49:57.649Z,29.18
2018-07-27T10:50:57.604Z,29.14
2018-07-27T10:51:57.516Z,29.11
2018-07-27T10:52:57.514Z,29.10
2018-07-27T10:53:57.387Z,29.11
2018-07-27T10:54:57.421Z,29.18
2018-07-27T10:55:57.262Z,29.22
2018-07-27T10:56:57.237Z,29.22
2018-07-27T10:57:57.132Z,29.34
2018-07-27T10:58:57.140Z,29.40
2018-07-27T10:59:57.005Z,29.41
2018-07-27T11:00:57.051Z,29.37
2018-07-27T11:01:56.874Z,29.31
2018-07-27T11:02:56.862Z,29.41
2018-07-27T11:03:56.747Z,29.37
2018-07-27T11:04:56.768Z,29.41
2018-07-27T11:05:56.624Z,29.26
2018-07-27T11:06:56.582Z,29.14
2018-07-27T11:07:56.492Z,29.14
2018-07-27T11:08:56.496Z,29.13
2018-07-27T11:09:56.358Z,29.07
2018-07-27T11:10:56.404Z,29.21
2018-07-27T11:11:56.231Z,29.14
2018-07-27T11:12:56.213Z,29.10
2018-07-27T11:13:56.104Z,29.21
2018-07-27T11:14:56.130Z,29.22
2018-07-27T11:15:55.974Z,29.13
2018-07-27T11:16:55.933Z,29.21
2018-07-27T11:17:55.983Z,29.18
2018-07-27T11:18:55.844Z,29.13
2018-07-27T11:19:55.717Z,29.21
2018-07-27T11:20:55.756Z,29.19
2018-07-27T11:21:55.589Z,29.26
2018-07-27T11:22:55.566Z,29.23
2018-07-27T11:23:55.462Z,29.32
2018-07-27T11:24:55.474Z,29.38
2018-07-27T11:25:55.338Z,29.34
2018-07-27T11:26:55.283Z,29.37
2018-07-27T11:27:55.201Z,29.43
2018-07-27T11:28:55.195Z,29.36
2018-07-27T11:29:55.073Z,29.48
2018-07-27T11:30:55.140Z,29.55
2018-07-27T11:31:54.944Z,29.65
2018-07-27T11:32:54.914Z,29.62
2018-07-27T11:33:54.813Z,29.69
2018-07-27T11:34:54.826Z,29.65
2018-07-27T11:35:54.685Z,29.71
2018-07-27T11:36:54.737Z,29.66
2018-07-27T11:37:54.563Z,29.69
2018-07-27T11:38:54.545Z,29.66
2018-07-27T11:39:54.436Z,29.65
2018-07-27T11:40:54.457Z,29.71
2018-07-27T11:41:54.303Z,29.73
2018-07-27T11:42:54.265Z,29.74
2018-07-27T11:43:54.173Z,29.71
2018-07-27T11:44:54.175Z,29.81
2018-07-27T11:45:54.044Z,29.78
2018-07-27T11:46:54.087Z,29.80
2018-07-27T11:47:53.917Z,29.87
2018-07-27T11:48:53.894Z,29.77
2018-07-27T11:49:53.788Z,29.78
2018-07-27T11:50:53.807Z,29.78
2018-07-27T11:51:53.660Z,29.81
2018-07-27T11:52:53.614Z,29.84
2018-07-27T11:53:53.530Z,29.78
2018-07-27T11:54:53.526Z,29.74
2018-07-27T11:55:53.404Z,29.81
2018-07-27T11:56:53.439Z,30.02
2018-07-27T11:57:53.276Z,30.10
2018-07-27T11:58:53.248Z,30.27
2018-07-27T11:59:53.146Z,30.36
2018-07-27T12:00:53.159Z,30.29
2018-07-27T12:01:53.023Z,30.43
2018-07-27T12:02:53.065Z,30.34
2018-07-27T12:03:52.890Z,30.36
2018-07-27T12:04:52.880Z,30.39
2018-07-27T12:05:52.765Z,30.37
2018-07-27T12:06:52.787Z,30.53
2018-07-27T12:07:52.639Z,30.62
2018-07-27T12:08:52.596Z,30.55
2018-07-27T12:09:52.510Z,30.50
2018-07-27T12:10:52.510Z,30.68
2018-07-27T12:11:52.381Z,30.85
2018-07-27T12:12:52.420Z,30.96
2018-07-27T12:13:52.269Z,30.97
2018-07-27T12:14:52.328Z,31.05
2018-07-27T12:15:52.127Z,31.26
2018-07-27T12:16:52.139Z,31.41
2018-07-27T12:17:51.999Z,31.51
2018-07-27T12:18:52.054Z,31.49
2018-07-27T12:19:51.873Z,31.58
2018-07-27T12:20:52.115Z,31.51
2018-07-27T12:21:51.747Z,31.38
2018-07-27T12:22:51.770Z,31.27
2018-07-27T12:23:51.621Z,31.21
2018-07-27T12:24:51.577Z,31.11
2018-07-27T12:25:51.494Z,31.30
2018-07-27T12:26:51.489Z,31.26
2018-07-27T12:27:51.366Z,31.30
2018-07-27T12:28:51.402Z,31.27
2018-07-27T12:29:51.246Z,31.20
2018-07-27T12:30:51.212Z,31.29
2018-07-27T12:31:51.143Z,31.45
2018-07-27T12:32:51.121Z,31.66
2018-07-27T12:33:50.984Z,31.87
2018-07-27T12:34:51.033Z,32.01
2018-07-27T12:35:50.864Z,32.05
2018-07-27T12:36:50.841Z,31.91
2018-07-27T12:37:50.738Z,31.91
2018-07-27T12:38:50.777Z,31.94
2018-07-27T12:39:50.613Z,32.16
2018-07-27T12:40:50.662Z,32.02
2018-07-27T12:41:50.488Z,32.05
2018-07-27T12:42:50.472Z,32.05
2018-07-27T12:43:50.362Z,31.94
2018-07-27T12:44:50.420Z,31.87
2018-07-27T12:45:50.237Z,31.64
2018-07-27T12:46:50.193Z,31.42
2018-07-27T12:47:50.112Z,31.36
2018-07-27T12:48:50.103Z,31.08
2018-07-27T12:49:49.988Z,31.04
2018-07-27T12:50:50.014Z,30.90
2018-07-27T12:51:49.859Z,30.60